createdAt,value
2018-02-08T00:01:34.307Z,56.97
2018-02-08T00:04:02.327Z,56.50
2018-02-08T00:06:30.398Z,55.15
2018-02-08T00:08:57.940Z,53.40
2018-02-08T00:11:25.512Z,60.23
2018-02-08T00:13:53.067Z,56.63
2018-02-08T00:16:20.616Z,56.28
2018-02-08T00:18:48.180Z,59.10
2018-02-08T00:21:16.635Z,57.00
2018-02-08T00:23:44.190Z,56.63
2018-02-08T00:26:12.063Z,58.63
2018-02-08T00:28:39.606Z,55.33
2018-02-08T00:31:07.959Z,57.77
2018-02-08T00:33:35.849Z,55.03
2018-02-08T00:36:03.431Z,56.03
2018-02-08T00:38:31.003Z,54.93
2018-02-08T00:40:58.582Z,55.00
2018-02-08T00:43:26.133Z,56.85
2018-02-08T00:45:53.683Z,52.87
2018-02-08T00:48:21.539Z,56.83
2018-02-08T00:50:49.091Z,54.13
2018-02-08T00:53:16.634Z,54.30
2018-02-08T00:55:44.234Z,53.37
2018-02-08T00:58:11.792Z,53.13
2018-02-08T01:00:39.331Z,53.63
2018-02-08T01:03:06.931Z,53.20
2018-02-08T01:05:34.476Z,56.65
2018-02-08T01:08:02.428Z,54.10
2018-02-08T01:10:30.024Z,54.87
2018-02-08T01:12:57.574Z,52.05
2018-02-08T01:15:25.111Z,54.57
2018-02-08T01:17:52.680Z,53.97
2018-02-08T01:20:20.224Z,54.10
2018-02-08T01:22:47.775Z,54.90
2018-02-08T01:25:15.648Z,53.00
2018-02-08T01:27:43.195Z,54.37
2018-02-08T01:30:10.736Z,55.07
2018-02-08T01:32:39.409Z,52.30
2018-02-08T01:35:06.971Z,54.57
2018-02-08T01:37:34.515Z,54.78
2018-02-08T01:40:02.087Z,55.20
2018-02-08T01:42:29.631Z,53.07
2018-02-08T01:44:57.171Z,52.83
2018-02-08T01:47:24.743Z,54.63
2018-02-08T01:49:52.284Z,53.20
2018-02-08T01:52:19.875Z,56.22
2018-02-08T01:54:47.942Z,54.78
2018-02-08T01:57:15.527Z,55.00
2018-02-08T01:59:43.064Z,53.30
2018-02-08T02:02:10.695Z,51.97
2018-02-08T02:04:38.242Z,53.83
2018-02-08T02:07:05.779Z,55.27
2018-02-08T02:09:33.615Z,54.20
2018-02-08T02:12:01.315Z,55.70
2018-02-08T02:14:29.619Z,54.90
2018-02-08T02:16:57.515Z,55.97
2018-02-08T02:19:25.064Z,53.80
2018-02-08T02:21:52.603Z,55.67
2018-02-08T02:24:20.171Z,51.95
2018-02-08T02:26:47.710Z,54.47
2018-02-08T02:29:15.550Z,53.50
2018-02-08T02:31:43.115Z,52.97
2018-02-08T02:34:11.438Z,56.20
2018-02-08T02:36:38.975Z,55.23
2018-02-08T02:39:06.999Z,54.00
2018-02-08T02:41:34.544Z,54.73
2018-02-08T02:44:02.090Z,55.90
2018-02-08T02:46:29.663Z,54.97
2018-02-08T02:48:57.205Z,51.80
2018-02-08T02:51:24.759Z,55.20
2018-02-08T02:53:52.324Z,56.80
2018-02-08T02:56:19.862Z,57.57
2018-02-08T02:58:47.399Z,55.87
2018-02-08T03:01:16.084Z,55.22
2018-02-08T03:03:44.431Z,54.30
2018-02-08T03:06:11.966Z,53.53
2018-02-08T03:08:39.536Z,54.83
2018-02-08T03:11:07.419Z,57.27
2018-02-08T03:13:35.166Z,55.40
2018-02-08T03:16:02.731Z,59.93
2018-02-08T03:18:30.272Z,55.87
2018-02-08T03:20:57.815Z,58.23
2018-02-08T03:23:26.230Z,52.97
2018-02-08T03:25:53.772Z,53.57
2018-02-08T03:28:21.322Z,55.20
2018-02-08T03:30:48.889Z,55.13
2018-02-08T03:33:16.514Z,56.13
2018-02-08T03:35:44.057Z,59.27
2018-02-08T03:38:11.623Z,56.35
2018-02-08T03:40:39.163Z,56.47
2018-02-08T03:43:06.703Z,55.87
2018-02-08T03:45:34.584Z,54.90
2018-02-08T03:48:02.123Z,58.37
2018-02-08T03:50:29.667Z,54.57
2018-02-08T03:52:57.254Z,54.63
2018-02-08T03:55:24.791Z,55.80
2018-02-08T03:57:52.331Z,54.73
2018-02-08T04:00:19.903Z,57.75
2018-02-08T04:02:47.464Z,56.93
2018-02-08T04:05:16.535Z,55.83
2018-02-08T04:07:45.439Z,58.77
2018-02-08T04:10:27.826Z,57.85
2018-02-08T04:15:26.799Z,56.40
2018-02-08T04:17:54.340Z,57.03
2018-02-08T04:20:21.880Z,51.60
2018-02-08T04:22:49.790Z,60.47
2018-02-08T04:25:17.354Z,56.10
2018-02-08T04:27:44.910Z,58.50
2018-02-08T04:30:12.479Z,61.07
2018-02-08T04:32:40.024Z,68.07
2018-02-08T04:35:07.573Z,62.00
2018-02-08T04:37:35.167Z,58.97
2018-02-08T04:40:14.580Z,57.57
2018-02-08T04:42:54.187Z,56.83
2018-02-08T04:45:33.391Z,55.77
2018-02-08T04:48:07.798Z,57.07
2018-02-08T04:50:35.338Z,55.17
2018-02-08T04:53:02.876Z,58.70
2018-02-08T04:55:31.286Z,58.90
2018-02-08T04:57:58.851Z,57.00
2018-02-08T05:00:26.478Z,61.88
2018-02-08T05:02:56.830Z,56.30
2018-02-08T05:05:24.371Z,57.70
2018-02-08T05:07:51.906Z,54.50
2018-02-08T05:10:19.490Z,56.13
2018-02-08T05:12:47.032Z,55.03
2018-02-08T05:15:30.851Z,58.55
2018-02-08T05:21:22.071Z,57.13
2018-02-08T05:23:49.606Z,55.37
2018-02-08T05:26:17.147Z,59.40
2018-02-08T05:28:44.745Z,58.03
2018-02-08T05:31:12.294Z,55.40
2018-02-08T05:33:39.838Z,56.67
2018-02-08T05:36:07.403Z,56.30
2018-02-08T05:38:35.041Z,56.20
2018-02-08T05:41:02.595Z,58.60
2018-02-08T05:43:31.012Z,56.47
2018-02-08T05:45:58.639Z,55.15
2018-02-08T05:48:26.251Z,55.00
2018-02-08T05:51:02.242Z,57.17
2018-02-08T05:53:29.791Z,55.93
2018-02-08T05:55:58.135Z,58.47
2018-02-08T05:58:25.715Z,57.37
2018-02-08T06:00:53.264Z,56.27
2018-02-08T06:03:20.807Z,55.97
2018-02-08T06:05:48.943Z,55.07
2018-02-08T06:08:16.654Z,57.03
2018-02-08T06:10:44.208Z,57.80
2018-02-08T06:13:11.797Z,55.57
2018-02-08T06:15:39.338Z,59.30
2018-02-08T06:18:06.883Z,55.90
2018-02-08T06:20:34.451Z,59.75
2018-02-08T06:23:02.484Z,56.87
2018-02-08T06:25:30.048Z,56.53
2018-02-08T06:27:57.667Z,56.92
2018-02-08T06:30:25.207Z,58.10
2018-02-08T06:32:52.750Z,57.27
2018-02-08T06:35:20.323Z,57.03
2018-02-08T06:37:47.871Z,54.83
2018-02-08T06:40:16.514Z,55.33
2018-02-08T06:42:44.102Z,57.80
2018-02-08T06:45:11.639Z,59.00
2018-02-08T06:47:39.183Z,61.53
2018-02-08T06:50:07.519Z,57.90
2018-02-08T06:52:35.103Z,56.37
2018-02-08T06:55:02.651Z,55.97
2018-02-08T06:57:30.223Z,56.80
2018-02-08T06:59:57.762Z,56.47
2018-02-08T07:02:25.309Z,58.20
2018-02-08T07:04:52.879Z,60.50
2018-02-08T07:07:20.419Z,54.26
2018-02-08T07:09:47.968Z,57.13
2018-02-08T07:12:17.611Z,55.95
2018-02-08T07:14:45.256Z,57.67
2018-02-08T07:17:13.724Z,57.93
2018-02-08T07:19:41.290Z,56.60
2018-02-08T07:22:08.831Z,56.53
2018-02-08T07:24:36.518Z,54.80
2018-02-08T07:27:04.083Z,54.10
2018-02-08T07:29:31.618Z,52.30
2018-02-08T07:31:59.159Z,54.47
2018-02-08T07:34:28.102Z,54.57
2018-02-08T07:36:55.644Z,56.37
2018-02-08T07:39:23.241Z,52.97
2018-02-08T07:41:50.787Z,55.83
2018-02-08T07:44:18.803Z,52.87
2018-02-08T07:46:46.349Z,53.80
2018-02-08T07:49:16.354Z,55.25
2018-02-08T07:51:43.899Z,55.27
2018-02-08T07:54:11.453Z,55.60
2018-02-08T07:56:39.857Z,55.23
2018-02-08T07:59:07.410Z,52.63
2018-02-08T08:01:34.951Z,55.80
2018-02-08T08:04:02.524Z,53.50
2018-02-08T08:06:30.075Z,54.70
2018-02-08T08:08:57.751Z,51.97
2018-02-08T08:11:25.319Z,54.55
2018-02-08T08:13:52.856Z,54.33
2018-02-08T08:16:20.388Z,54.07
2018-02-08T08:18:48.488Z,50.37
2018-02-08T08:21:16.428Z,53.53
2018-02-08T08:23:43.962Z,52.57
2018-02-08T08:26:12.361Z,55.70
2018-02-08T08:28:39.943Z,50.70
2018-02-08T08:31:07.481Z,52.47
2018-02-08T08:33:35.099Z,54.73
2018-02-08T08:36:02.642Z,55.33
2018-02-08T08:38:30.196Z,52.30
2018-02-08T08:40:58.102Z,50.87
2018-02-08T08:43:26.419Z,51.67
2018-02-08T08:45:53.977Z,54.67
2018-02-08T08:48:21.760Z,53.58
2018-02-08T08:50:49.308Z,54.30
2018-02-08T08:53:16.863Z,53.30
2018-02-08T08:55:44.463Z,54.60
2018-02-08T08:58:12.021Z,51.20
2018-02-08T09:00:39.563Z,53.47
2018-02-08T09:03:07.822Z,54.03
2018-02-08T09:05:35.367Z,53.37
2018-02-08T09:08:02.915Z,53.73
2018-02-08T09:10:31.279Z,55.73
2018-02-08T09:12:59.603Z,53.77
2018-02-08T09:15:27.927Z,51.60
2018-02-08T09:17:55.547Z,55.53
2018-02-08T09:20:23.089Z,51.70
2018-02-08T09:22:50.627Z,54.33
2018-02-08T09:25:18.771Z,54.63
2018-02-08T09:27:46.771Z,55.57
2018-02-08T09:30:26.478Z,52.03
2018-02-08T09:38:59.061Z,50.27
2018-02-08T09:41:26.599Z,51.13
2018-02-08T09:43:54.147Z,52.03
2018-02-08T09:46:21.771Z,53.00
2018-02-08T09:48:49.302Z,55.13
2018-02-08T09:51:16.839Z,52.27
2018-02-08T09:53:45.168Z,55.43
2018-02-08T09:56:13.633Z,54.03
2018-02-08T09:58:41.163Z,51.57
2018-02-08T10:01:08.727Z,54.60
2018-02-08T10:03:36.279Z,56.20
2018-02-08T10:06:03.822Z,53.13
2018-02-08T10:08:32.379Z,54.47
2018-02-08T10:10:59.919Z,51.27
2018-02-08T10:13:27.459Z,51.88
2018-02-08T10:15:55.022Z,55.40
2018-02-08T10:18:22.563Z,54.03
2018-02-08T10:20:50.108Z,52.17
2018-02-08T10:23:18.442Z,54.17
2018-02-08T10:25:45.978Z,54.27
2018-02-08T10:28:25.535Z,54.58
2018-02-08T10:33:44.386Z,50.87
2018-02-08T10:36:11.926Z,53.40
2018-02-08T10:38:39.476Z,52.47
2018-02-08T10:41:07.811Z,53.93
2018-02-08T10:43:35.353Z,51.30
2018-02-08T10:46:02.880Z,51.13
2018-02-08T10:48:30.742Z,54.20
2018-02-08T10:50:59.080Z,54.10
2018-02-08T10:53:26.618Z,51.37
2018-02-08T10:55:54.172Z,52.40
2018-02-08T10:58:21.719Z,52.67
2018-02-08T11:00:49.263Z,54.87
2018-02-08T11:03:16.840Z,53.03
2018-02-08T11:05:44.380Z,54.70
2018-02-08T11:08:11.931Z,53.70
2018-02-08T11:10:39.715Z,55.90
2018-02-08T11:13:07.258Z,54.47
2018-02-08T11:15:35.561Z,54.50
2018-02-08T11:18:03.114Z,51.80
2018-02-08T11:20:31.428Z,56.03
2018-02-08T11:22:58.976Z,55.10
2018-02-08T11:25:26.946Z,56.60
2018-02-08T11:27:54.486Z,56.30
2018-02-08T11:30:22.447Z,55.20
2018-02-08T11:32:50.878Z,54.27
2018-02-08T11:35:18.420Z,55.90
2018-02-08T11:37:45.962Z,52.97
2018-02-08T11:40:25.172Z,56.92
2018-02-08T11:45:32.839Z,54.60
2018-02-08T11:48:00.388Z,57.80
2018-02-08T11:50:27.952Z,54.92
2018-02-08T11:52:56.039Z,55.17
2018-02-08T11:55:23.572Z,54.93
2018-02-08T11:57:51.114Z,55.30
2018-02-08T12:00:18.797Z,54.75
2018-02-08T12:02:46.334Z,54.13
2018-02-08T12:05:25.371Z,57.05
2018-02-08T12:10:46.466Z,56.20
2018-02-08T12:13:25.472Z,55.00
2018-02-08T12:21:01.448Z,53.07
2018-02-08T12:23:28.983Z,56.80
2018-02-08T12:25:56.526Z,56.10
2018-02-08T12:28:25.584Z,55.90
2018-02-08T12:30:53.915Z,57.73
2018-02-08T12:33:21.459Z,56.15
2018-02-08T12:35:50.672Z,56.17
2018-02-08T12:38:18.223Z,54.67
2018-02-08T12:40:45.774Z,56.80
2018-02-08T12:43:24.435Z,55.92
2018-02-08T12:52:02.376Z,55.13
2018-02-08T12:54:29.907Z,58.03
2018-02-08T12:56:57.452Z,56.20
2018-02-08T12:59:25.010Z,58.35
2018-02-08T13:01:52.542Z,59.53
2018-02-08T13:04:20.084Z,59.23
2018-02-08T13:06:48.172Z,59.10
2018-02-08T13:09:16.555Z,61.17
2018-02-08T13:11:44.095Z,58.83
2018-02-08T13:14:11.874Z,60.03
2018-02-08T13:16:39.411Z,60.37
2018-02-08T13:19:06.947Z,58.57
2018-02-08T13:21:34.531Z,55.88
2018-02-08T13:24:02.077Z,58.17
2018-02-08T13:26:29.619Z,59.97
2018-02-08T13:28:58.559Z,55.17
2018-02-08T13:31:26.259Z,58.47
2018-02-08T13:33:53.794Z,58.97
2018-02-08T13:36:21.896Z,56.22
2018-02-08T13:38:50.198Z,58.85
2018-02-08T13:41:19.534Z,58.33
2018-02-08T13:43:47.099Z,61.33
2018-02-08T13:46:17.179Z,58.93
2018-02-08T13:48:44.710Z,61.33
2018-02-08T13:51:19.683Z,58.20
2018-02-08T13:53:53.068Z,59.20
2018-02-08T13:56:24.506Z,57.17
2018-02-08T13:59:02.762Z,59.20
2018-02-08T14:04:32.674Z,57.93
2018-02-08T14:07:01.023Z,59.70
2018-02-08T14:09:28.608Z,60.03
2018-02-08T14:11:56.144Z,56.73
2018-02-08T14:14:23.759Z,59.47
2018-02-08T14:16:51.297Z,60.77
2018-02-08T14:19:18.826Z,58.07
2018-02-08T14:21:47.156Z,59.17
2018-02-08T14:24:17.251Z,59.95
2018-02-08T14:26:44.831Z,58.40
2018-02-08T14:29:12.869Z,61.27
2018-02-08T14:31:40.762Z,60.17
2018-02-08T14:34:08.414Z,57.70
2018-02-08T14:36:36.764Z,60.20
2018-02-08T14:39:05.181Z,58.63
2018-02-08T14:41:32.843Z,60.05
2018-02-08T14:44:01.729Z,61.67
2018-02-08T14:46:29.283Z,60.60
2018-02-08T14:48:56.832Z,62.50
2018-02-08T14:51:24.419Z,62.58
2018-02-08T14:53:51.965Z,60.67
2018-02-08T14:56:19.512Z,58.38
2018-02-08T14:58:47.544Z,63.10
2018-02-08T15:01:17.215Z,59.80
2018-02-08T15:03:44.771Z,58.50
2018-02-08T15:06:12.348Z,60.50
2018-02-08T15:08:39.899Z,57.37
2018-02-08T15:11:07.455Z,59.87
2018-02-08T15:13:35.033Z,60.70
2018-02-08T15:16:02.576Z,61.67
2018-02-08T15:18:30.267Z,59.83
2018-02-08T15:20:58.291Z,59.80
2018-02-08T15:23:25.846Z,62.63
2018-02-08T15:25:53.399Z,56.13
2018-02-08T15:28:20.974Z,57.13
2018-02-08T15:30:48.614Z,57.15
2018-02-08T15:33:16.721Z,50.42
2018-02-08T15:35:44.442Z,59.67
2018-02-08T15:38:12.034Z,59.90
2018-02-08T15:40:39.587Z,59.30
2018-02-08T15:43:07.636Z,62.03
2018-02-08T15:45:35.976Z,57.78
2018-02-08T15:48:03.535Z,59.65
2018-02-08T15:50:31.119Z,63.77
2018-02-08T15:53:08.821Z,63.53
2018-02-08T15:55:37.179Z,61.00
2018-02-08T15:58:04.735Z,60.97
2018-02-08T16:00:32.289Z,60.90
2018-02-08T16:03:00.695Z,61.03
2018-02-08T16:05:28.242Z,63.73
2018-02-08T16:07:55.847Z,60.70
2018-02-08T16:10:23.499Z,60.10
2018-02-08T16:12:51.819Z,62.47
2018-02-08T16:15:19.940Z,66.33
2018-02-08T16:17:48.291Z,65.70
2018-02-08T16:20:18.118Z,65.35
2018-02-08T16:22:45.671Z,66.40
2018-02-08T16:25:15.721Z,66.62
2018-02-08T16:27:43.268Z,63.50
2018-02-08T16:30:10.844Z,66.60
2018-02-08T16:32:38.439Z,64.07
2018-02-08T16:35:06.419Z,63.57
2018-02-08T16:37:33.973Z,66.57
2018-02-08T16:40:01.590Z,67.50
2018-02-08T16:42:29.908Z,63.80
2018-02-08T16:44:57.471Z,64.72
2018-02-08T16:47:25.831Z,67.90
2018-02-08T16:49:53.396Z,65.00
2018-02-08T16:52:20.944Z,63.70
2018-02-08T16:54:48.562Z,64.80
2018-02-08T16:57:16.996Z,67.03
2018-02-08T16:59:44.547Z,64.77
2018-02-08T17:02:12.107Z,65.50
2018-02-08T17:04:40.113Z,65.60
2018-02-08T17:07:07.664Z,67.13
2018-02-08T17:09:35.951Z,64.47
2018-02-08T17:12:03.500Z,63.27
2018-02-08T17:14:31.336Z,61.00
2018-02-08T17:16:58.906Z,62.07
2018-02-08T17:19:26.442Z,60.30
2018-02-08T17:21:54.750Z,65.87
2018-02-08T17:24:23.091Z,62.77
2018-02-08T17:26:50.766Z,62.83
2018-02-08T17:29:19.072Z,62.00
2018-02-08T17:31:47.367Z,62.23
2018-02-08T17:34:15.544Z,64.97
2018-02-08T17:36:43.467Z,63.30
2018-02-08T17:39:11.035Z,68.40
2018-02-08T17:41:38.639Z,66.10
2018-02-08T17:44:06.195Z,64.20
2018-02-08T17:46:34.722Z,63.08
2018-02-08T17:49:02.418Z,67.07
2018-02-08T17:51:30.939Z,63.63
2018-02-08T17:53:58.556Z,68.93
2018-02-08T17:56:26.099Z,62.22
2018-02-08T17:58:53.648Z,65.73
2018-02-08T18:01:21.988Z,64.04
2018-02-08T18:03:49.559Z,65.57
2018-02-08T18:06:25.723Z,67.78
2018-02-08T18:08:57.967Z,66.20
2018-02-08T18:11:25.525Z,66.75
2018-02-08T18:13:53.072Z,66.40
2018-02-08T18:16:20.659Z,66.43
2018-02-08T18:18:48.191Z,66.00
2018-02-08T18:21:16.518Z,68.10
2018-02-08T18:23:44.132Z,67.17
2018-02-08T18:26:11.667Z,67.30
2018-02-08T18:28:39.449Z,65.07
2018-02-08T18:31:07.142Z,67.60
2018-02-08T18:33:34.684Z,66.80
2018-02-08T18:36:02.229Z,69.23
2018-02-08T18:38:30.311Z,67.85
2018-02-08T18:40:57.864Z,66.00
2018-02-08T18:43:25.414Z,64.53
2018-02-08T18:45:52.976Z,66.50
2018-02-08T18:48:20.511Z,67.20
2018-02-08T18:50:48.052Z,67.30
2018-02-08T18:53:16.917Z,66.43
2018-02-08T18:55:44.462Z,68.37
2018-02-08T18:58:12.008Z,65.20
2018-02-08T19:00:39.616Z,68.10
2018-02-08T19:03:07.983Z,67.20
2018-02-08T19:05:35.568Z,67.80
2018-02-08T19:08:03.160Z,66.00
2018-02-08T19:10:30.699Z,67.93
2018-02-08T19:12:59.038Z,64.97
2018-02-08T19:15:26.684Z,67.97
2018-02-08T19:17:55.097Z,71.67
2018-02-08T19:20:22.800Z,67.53
2018-02-08T19:22:51.186Z,70.17
2018-02-08T19:25:19.955Z,62.90
2018-02-08T19:27:48.315Z,65.53
2018-02-08T19:30:17.312Z,66.55
2018-02-08T19:32:44.876Z,66.43
2018-02-08T19:35:12.417Z,68.95
2018-02-08T19:37:40.023Z,67.63
2018-02-08T19:40:07.979Z,67.87
2018-02-08T19:42:35.594Z,69.65
2018-02-08T19:45:03.359Z,64.07
2018-02-08T19:47:30.900Z,67.62
2018-02-08T19:49:58.450Z,68.43
2018-02-08T19:52:26.092Z,66.73
2018-02-08T19:54:53.703Z,65.57
2018-02-08T19:57:21.247Z,68.27
2018-02-08T19:59:48.980Z,62.93
2018-02-08T20:02:16.994Z,68.37
2018-02-08T20:04:44.540Z,65.90
2018-02-08T20:07:12.216Z,68.73
2018-02-08T20:09:39.756Z,67.77
2018-02-08T20:12:07.290Z,69.70
2018-02-08T20:17:35.955Z,66.90
2018-02-08T20:20:03.603Z,66.43
2018-02-08T20:22:31.235Z,64.07
2018-02-08T20:24:58.832Z,65.60
2018-02-08T20:27:26.723Z,69.40
2018-02-08T20:29:54.290Z,67.27
2018-02-08T20:32:21.851Z,66.47
2018-02-08T20:34:50.188Z,65.75
2018-02-08T20:37:17.733Z,63.90
2018-02-08T20:39:45.282Z,66.07
2018-02-08T20:42:19.683Z,68.90
2018-02-08T20:44:48.040Z,69.80
2018-02-08T20:47:17.287Z,67.16
2018-02-08T20:49:51.297Z,66.97
2018-02-08T20:52:18.874Z,67.73
2018-02-08T20:54:46.448Z,65.72
2018-02-08T20:57:16.360Z,66.70
2018-02-08T20:59:43.895Z,67.57
2018-02-08T21:02:11.636Z,65.13
2018-02-08T21:04:39.312Z,65.57
2018-02-08T21:07:06.852Z,64.13
2018-02-08T21:09:35.197Z,61.83
2018-02-08T21:12:02.815Z,65.80
2018-02-08T21:14:30.403Z,65.13
2018-02-08T21:16:58.052Z,67.30
2018-02-08T21:19:25.644Z,65.30
2018-02-08T21:21:53.347Z,63.30
2018-02-08T21:24:20.919Z,66.08
2018-02-08T21:26:48.526Z,64.85
2018-02-08T21:29:17.212Z,65.43
2018-02-08T21:31:44.766Z,73.20
2018-02-08T21:34:12.426Z,70.20
2018-02-08T21:36:39.968Z,66.00
2018-02-08T21:39:07.527Z,69.93
2018-02-08T21:41:35.109Z,67.23
2018-02-08T21:44:02.707Z,67.67
2018-02-08T21:46:31.017Z,67.55
2018-02-08T21:48:58.648Z,67.90
2018-02-08T21:51:26.964Z,67.62
2018-02-08T21:53:54.508Z,68.78
2018-02-08T21:56:22.415Z,68.22
2018-02-08T21:58:49.976Z,65.33
2018-02-08T22:01:17.545Z,65.93
2018-02-08T22:03:45.413Z,67.17
2018-02-08T22:06:14.607Z,68.97
2018-02-08T22:08:42.186Z,67.57
2018-02-08T22:11:10.114Z,64.73
2018-02-08T22:13:37.929Z,65.13
2018-02-08T22:16:07.193Z,66.83
2018-02-08T22:18:35.611Z,69.07
2018-02-08T22:23:38.650Z,66.67
2018-02-08T22:26:06.190Z,69.83
2018-02-08T22:28:33.735Z,67.50
2018-02-08T22:31:01.311Z,67.07
2018-02-08T22:33:28.851Z,65.10
2018-02-08T22:35:56.384Z,65.23
2018-02-08T22:38:24.580Z,65.47
2018-02-08T22:40:52.088Z,62.90
2018-02-08T22:43:19.652Z,64.03
2018-02-08T22:45:47.524Z,67.40
2018-02-08T22:48:16.454Z,65.78
2018-02-08T22:50:43.987Z,67.47
2018-02-08T22:53:11.560Z,64.35
2018-02-08T22:55:39.108Z,61.83
2018-02-08T22:58:06.643Z,64.80
2018-02-08T23:00:34.731Z,66.20
2018-02-08T23:03:02.283Z,68.70
2018-02-08T23:05:29.829Z,64.27
2018-02-08T23:07:57.397Z,57.90
2018-02-08T23:10:24.934Z,59.03
2018-02-08T23:12:52.487Z,64.78
2018-02-08T23:15:20.065Z,61.00
2018-02-08T23:17:47.602Z,61.97
2018-02-08T23:20:17.695Z,63.13
2018-02-08T23:22:45.862Z,62.77
2018-02-08T23:25:24.410Z,65.60
2018-02-08T23:30:31.807Z,60.60
2018-02-08T23:32:59.344Z,61.17
2018-02-08T23:35:26.905Z,61.35
2018-02-08T23:37:55.042Z,60.10
2018-02-08T23:40:22.593Z,61.42
2018-02-08T23:42:50.131Z,62.63
2018-02-08T23:45:18.495Z,64.10
2018-02-08T23:47:46.487Z,62.47
2018-02-08T23:50:15.555Z,57.83
2018-02-08T23:52:43.121Z,62.17
2018-02-08T23:55:10.667Z,65.67
2018-02-08T23:57:38.208Z,60.33
